Time;durP1;ratioP1;P1;durP2;ratioP2;P2;SDS_P1;SDS_P2;PMS_P1;PMS_P2;Temp;Humidity;BMP_temperature;BMP_pressure;BME280_temperature;BME280_humidity;BME280_pressure;Samples;Min_cycle;Max_cycle;Signal;HPM_P1;HPM_P2
2023/06/19 00:09:20;;;;;;;6.22;5.63;;;;;;;20.89;75.04;100580.31;20937407;28;20040;-68
2023/06/19 00:19:22;;;;;;;6.15;5.55;;;;;;;20.89;74.58;100574.91;20947806;28;20789;-68
2023/06/19 00:29:27;;;;;;;6.30;5.70;;;;;;;20.88;74.47;100548.84;20935872;28;20083;-68
2023/06/19 00:39:31;;;;;;;5.28;4.75;;;;;;;20.87;73.96;100537.19;20956510;28;20057;-68
2023/06/19 00:49:33;;;;;;;5.65;5.15;;;;;;;20.85;73.59;100533.81;20927958;28;20052;-68
2023/06/19 00:59:34;;;;;;;6.80;5.68;;;;;;;20.84;73.10;100540.25;20947693;28;20056;-68
2023/06/19 01:09:44;;;;;;;6.30;5.70;;;;;;;20.81;73.60;100527.03;20943690;28;20416;-68
2023/06/19 01:19:45;;;;;;;5.45;4.95;;;;;;;20.82;72.62;100531.44;20927542;28;20068;-68
2023/06/19 01:29:47;;;;;;;5.72;5.13;;;;;;;20.81;72.48;100527.03;20930077;28;20076;-68
2023/06/19 01:39:49;;;;;;;5.18;4.68;;;;;;;20.82;72.07;100517.91;20960590;28;20045;-68
2023/06/19 01:49:50;;;;;;;5.82;5.22;;;;;;;20.82;72.02;100517.91;20945688;28;20055;-68
2023/06/19 01:59:52;;;;;;;5.55;5.05;;;;;;;20.81;72.06;100518.94;20960175;28;20339;-68
2023/06/19 02:09:56;;;;;;;5.55;5.05;;;;;;;20.80;72.15;100509.13;20939895;28;20465;-68
2023/06/19 02:19:58;;;;;;;6.03;5.43;;;;;;;20.80;71.36;100511.81;20958853;28;20139;-68
2023/06/19 02:29:59;;;;;;;6.00;5.38;;;;;;;20.79;71.72;100516.38;20960266;28;20049;-68
2023/06/19 02:40:03;;;;;;;6.50;5.18;;;;;;;20.80;71.87;100517.22;20937754;28;20064;-68
2023/06/19 02:50:07;;;;;;;5.80;5.30;;;;;;;20.79;71.98;100526.38;20950189;28;20056;-68
2023/06/19 03:00:11;;;;;;;5.85;5.28;;;;;;;20.78;71.57;100524.63;20952013;28;20049;-68
2023/06/19 03:10:13;;;;;;;5.32;4.82;;;;;;;20.78;71.84;100535.47;20929548;28;20052;-68
2023/06/19 03:20:15;;;;;;;5.35;4.82;;;;;;;20.78;72.31;100540.88;20949467;28;20140;-68
2023/06/19 03:30:24;;;;;;;4.90;4.50;;;;;;;20.76;72.94;100542.88;20946376;28;20488;-68
2023/06/19 03:40:27;;;;;;;5.50;5.00;;;;;;;20.75;73.35;100552.00;20975822;28;20045;-68
2023/06/19 03:50:38;;;;;;;6.22;5.25;;;;;;;20.74;73.19;100559.28;20953197;28;20052;-68
2023/06/19 04:00:41;;;;;;;5.35;4.85;;;;;;;20.73;73.74;100561.13;20925970;28;20056;-68
2023/06/19 04:10:43;;;;;;;5.55;5.05;;;;;;;20.73;73.99;100563.00;20955326;28;20497;-68
2023/06/19 04:20:45;;;;;;;5.38;4.88;;;;;;;20.72;74.11;100559.41;20951936;28;20091;-68
2023/06/19 04:30:47;;;;;;;5.50;4.63;;;;;;;20.72;75.09;100581.06;20940676;28;20386;-68
2023/06/19 04:40:49;;;;;;;5.18;4.68;;;;;;;20.72;75.32;100572.94;20962408;28;20408;-68
2023/06/19 04:50:52;;;;;;;4.88;4.38;;;;;;;20.72;75.51;100580.22;20936509;28;21347;-68
2023/06/19 05:00:54;;;;;;;4.90;4.50;;;;;;;20.72;75.88;100591.88;20970368;28;20052;-68
2023/06/19 05:10:57;;;;;;;4.22;3.83;;;;;;;20.71;75.23;100601.00;20954773;28;20049;-68
2023/06/19 05:20:59;;;;;;;4.90;4.30;;;;;;;20.70;74.56;100610.13;20952761;28;20052;-68
2023/06/19 05:31:00;;;;;;;7.95;4.32;;;;;;;20.63;75.88;100609.09;20946588;28;20404;-70
2023/06/19 05:41:03;;;;;;;4.88;4.28;;;;;;;20.71;75.93;100627.22;20956416;28;20798;-68
2023/06/19 05:51:04;;;;;;;4.60;3.40;;;;;;;20.75;76.38;100638.56;20937218;28;22990;-70
2023/06/19 06:01:06;;;;;;;4.07;3.00;;;;;;;20.78;78.00;100639.09;20919576;28;20051;-70
2023/06/19 06:11:08;;;;;;;3.35;3.05;;;;;;;20.84;79.02;100665.53;20908864;28;20060;-68
2023/06/19 06:21:12;;;;;;;3.75;3.20;;;;;;;20.87;79.42;100669.78;20920884;28;20056;-69
2023/06/19 06:31:14;;;;;;;3.73;3.40;;;;;;;20.86;78.32;100673.50;20939212;28;20057;-69
2023/06/19 06:41:15;;;;;;;3.45;2.67;;;;;;;20.89;79.36;100677.72;20943729;28;20505;-68
2023/06/19 06:51:17;;;;;;;3.15;2.80;;;;;;;20.90;79.61;100691.09;20923029;28;20045;-68
2023/06/19 07:01:19;;;;;;;2.70;2.50;;;;;;;20.88;77.91;100698.53;20941406;28;20452;-67
2023/06/19 07:11:22;;;;;;;3.80;2.75;;;;;;;20.88;78.45;100714.78;20958721;28;20045;-68
2023/06/19 07:21:24;;;;;;;2.65;2.40;;;;;;;20.88;78.72;100730.13;20986818;28;20348;-67
2023/06/19 07:31:25;;;;;;;3.10;2.80;;;;;;;20.87;79.46;100734.72;20988819;28;20052;-67
2023/06/19 07:41:27;;;;;;;3.67;2.53;;;;;;;20.86;80.01;100750.09;20975634;28;20058;-69
2023/06/19 07:51:28;;;;;;;3.25;2.95;;;;;;;20.87;80.42;100756.38;20920364;28;20054;-68
2023/06/19 08:01:30;;;;;;;3.70;2.80;;;;;;;20.86;79.43;100763.63;20916477;28;20048;-68
2023/06/19 08:11:32;;;;;;;2.60;2.40;;;;;;;20.88;79.29;100793.25;20963816;28;20045;-68
2023/06/19 08:21:33;;;;;;;2.75;2.50;;;;;;;20.89;79.31;100800.34;20956276;28;20067;-69
2023/06/19 08:31:35;;;;;;;3.08;2.78;;;;;;;20.88;79.01;100814.03;20963076;28;20048;-68
2023/06/19 08:41:37;;;;;;;3.47;2.63;;;;;;;20.87;78.79;100832.13;20983891;28;20546;-69
2023/06/19 08:51:40;;;;;;;3.33;3.00;;;;;;;20.89;80.19;100830.09;20946751;28;20052;-69
2023/06/19 09:01:53;;;;;;;4.22;3.85;;;;;;;20.97;81.54;100837.41;20968973;28;20389;-68
2023/06/19 09:12:08;;;;;;;4.43;3.80;;;;;;;21.06;81.57;100839.19;20903145;28;20041;-69
2023/06/19 09:22:13;;;;;;;4.65;4.13;;;;;;;21.20;81.84;100867.50;20938744;28;20048;-68
2023/06/19 09:32:21;;;;;;;5.82;4.43;;;;;;;21.32;81.91;100875.41;20936937;28;20046;-68
2023/06/19 09:42:30;;;;;;;4.07;3.30;;;;;;;21.45;81.42;100889.34;20978251;28;20516;-68
2023/06/19 09:52:34;;;;;;;3.92;3.53;;;;;;;21.51;81.16;100904.13;20941566;28;20447;-68
2023/06/19 10:02:44;;;;;;;4.30;3.90;;;;;;;21.54;81.19;100899.22;20958034;28;20113;-68
2023/06/19 10:12:46;;;;;;;3.53;3.22;;;;;;;21.51;81.49;100904.94;20941758;28;20130;-67
2023/06/19 10:23:22;;;;;;;4.18;3.70;;;;;;;21.57;81.43;100920.56;20940368;28;20056;-67
2023/06/19 10:33:26;;;;;;;4.15;3.75;;;;;;;21.55;81.43;100919.88;20975062;28;20500;-67
2023/06/19 10:43:31;;;;;;;3.83;3.50;;;;;;;21.57;81.32;100934.09;20970089;28;20083;-68
2023/06/19 10:53:33;;;;;;;4.18;3.80;;;;;;;21.59;80.88;100947.50;20976643;28;20454;-67
2023/06/19 11:03:35;;;;;;;4.05;3.67;;;;;;;21.62;80.68;100949.03;20939055;28;20040;-68
2023/06/19 11:13:37;;;;;;;3.17;2.97;;;;;;;21.66;80.01;100954.00;20933022;28;20473;-68
2023/06/19 11:23:38;;;;;;;3.40;3.00;;;;;;;21.70;79.49;100957.25;20949876;28;20052;-68
2023/06/19 11:33:40;;;;;;;3.83;3.42;;;;;;;21.73;79.34;100970.47;20964542;28;20583;-68
2023/06/19 11:43:41;;;;;;;3.53;2.92;;;;;;;21.74;79.13;100966.75;20920733;28;20460;-68
2023/06/19 11:53:44;;;;;;;3.20;2.90;;;;;;;21.76;78.83;100966.59;20987508;28;20106;-68
2023/06/19 12:03:46;;;;;;;3.83;3.42;;;;;;;21.76;78.54;100972.88;20982655;28;20037;-67
2023/06/19 12:13:48;;;;;;;3.55;3.25;;;;;;;21.74;78.40;100974.88;20965548;28;20136;-68
2023/06/19 12:23:51;;;;;;;4.43;3.80;;;;;;;21.76;78.12;100969.28;20982586;28;20045;-67
2023/06/19 12:33:53;;;;;;;3.70;3.40;;;;;;;21.77;78.01;100979.13;20981894;28;20118;-67
2023/06/19 12:43:54;;;;;;;4.68;3.47;;;;;;;21.74;77.54;100969.47;20981677;28;20059;-67
2023/06/19 12:53:56;;;;;;;3.55;3.25;;;;;;;21.76;77.35;100985.56;20998552;28;20055;-67
2023/06/19 13:03:57;;;;;;;4.00;3.60;;;;;;;21.72;77.38;100976.91;21080109;28;20547;-67
2023/06/19 13:14:02;;;;;;;4.07;3.67;;;;;;;21.73;77.16;100994.88;21079429;28;20044;-68
2023/06/19 13:24:04;;;;;;;;;;;;;;;21.72;76.97;100987.75;21061669;28;20048;-68
2023/06/19 13:34:06;;;;;;;4.28;3.88;;;;;;;21.68;76.80;100997.22;21077372;28;19926;-67
2023/06/19 13:44:07;;;;;;;6.05;3.97;;;;;;;21.65;77.13;100992.94;20970411;28;20097;-69
2023/06/19 13:54:09;;;;;;;5.57;3.80;;;;;;;21.65;77.44;100998.34;20980670;28;20036;-68
2023/06/19 14:04:11;;;;;;;3.97;3.65;;;;;;;21.67;77.10;100992.81;20941991;28;20040;-68
2023/06/19 14:14:13;;;;;;;5.93;3.53;;;;;;;21.68;78.11;101013.47;20994697;28;20569;-68
2023/06/19 14:24:16;;;;;;;5.20;3.97;;;;;;;21.67;77.62;100984.66;20983639;28;20504;-68
2023/06/19 14:34:19;;;;;;;4.93;3.33;;;;;;;21.68;77.31;100986.38;21009235;28;20048;-68
2023/06/19 14:44:20;;;;;;;4.25;3.80;;;;;;;21.67;76.79;100968.41;21007817;28;20131;-68
2023/06/19 14:54:22;;;;;;;4.13;3.72;;;;;;;21.64;76.09;100984.97;20948344;28;20063;-68
2023/06/19 15:04:24;;;;;;;3.80;3.47;;;;;;;21.68;76.53;100997.22;20895977;28;20047;-71
2023/06/19 15:14:26;;;;;;;4.97;3.42;;;;;;;21.70;76.28;100989.78;20918066;28;20132;-67
2023/06/19 15:24:28;;;;;;;5.35;3.50;;;;;;;21.72;76.43;100993.16;20889994;28;20044;-68
2023/06/19 15:34:29;;;;;;;5.18;3.58;;;;;;;21.76;78.22;100983.72;20894744;28;22035;-70
2023/06/19 15:44:31;;;;;;;4.30;3.10;;;;;;;21.83;79.17;100984.75;20909913;28;20052;-71
2023/06/19 15:54:33;;;;;;;3.92;3.53;;;;;;;21.88;78.02;100987.84;20919205;28;20052;-72
2023/06/19 16:04:34;;;;;;;3.88;3.20;;;;;;;21.91;78.71;100981.25;20969890;28;20040;-71
2023/06/19 16:14:36;;;;;;;3.25;2.90;;;;;;;22.00;81.13;100984.84;20912137;28;20110;-73
2023/06/19 16:24:40;;;;;;;4.03;3.35;;;;;;;21.99;82.08;100973.16;20943924;28;20111;-73
2023/06/19 16:34:42;;;;;;;;;;;;;;;22.02;81.37;100986.38;20960952;28;20138;-73
2023/06/19 16:44:43;;;;;;;5.13;3.28;;;;;;;22.00;80.92;100996.53;20927978;28;19928;-71
2023/06/19 16:54:45;;;;;;;3.20;2.78;;;;;;;22.00;80.35;100992.97;20940373;28;20048;-70
2023/06/19 17:04:46;;;;;;;3.38;2.97;;;;;;;22.00;79.84;101001.97;20940787;28;20681;-71
2023/06/19 17:14:48;;;;;;;3.45;3.10;;;;;;;21.98;79.06;101008.53;20994980;28;20060;-69
2023/06/19 17:24:50;;;;;;;4.07;3.05;;;;;;;21.92;77.97;101006.47;20911923;28;20081;-69
2023/06/19 17:34:51;;;;;;;3.85;2.90;;;;;;;21.87;77.96;101007.81;20916669;28;20044;-70
2023/06/19 17:44:53;;;;;;;4.72;3.40;;;;;;;21.83;77.23;101020.00;21009095;28;20419;-70
2023/06/19 17:54:55;;;;;;;6.22;3.45;;;;;;;21.79;76.77;101010.47;20952376;28;20128;-70
2023/06/19 18:04:56;;;;;;;4.68;3.33;;;;;;;21.76;76.42;101020.78;21001112;28;20059;-70
2023/06/19 18:14:58;;;;;;;4.25;3.20;;;;;;;21.71;76.13;101013.16;20984167;28;20111;-70
2023/06/19 18:25:00;;;;;;;4.00;3.25;;;;;;;21.69;76.05;101023.28;20930130;28;20072;-67
2023/06/19 18:35:01;;;;;;;4.05;2.97;;;;;;;21.64;75.79;101007.50;20917133;28;20053;-70
2023/06/19 18:45:03;;;;;;;4.28;3.70;;;;;;;21.60;75.85;101030.47;20993225;28;20495;-70
2023/06/19 18:55:05;;;;;;;4.68;3.58;;;;;;;21.55;75.68;101022.81;21048623;28;20127;-70
2023/06/19 19:05:07;;;;;;;3.50;3.20;;;;;;;21.53;76.04;101024.81;21040896;28;20145;-70
2023/06/19 19:15:12;;;;;;;4.13;3.40;;;;;;;21.49;75.75;101023.44;20957132;28;20044;-70
2023/06/19 19:25:14;;;;;;;4.05;3.10;;;;;;;21.48;75.99;101024.44;20938605;28;20071;-70
2023/06/19 19:35:15;;;;;;;4.47;3.42;;;;;;;21.41;75.91;101036.91;20972022;28;20071;-70
2023/06/19 19:45:17;;;;;;;3.88;3.47;;;;;;;21.44;76.08;101050.16;20953838;28;20076;-70
2023/06/19 19:55:18;;;;;;;4.65;3.80;;;;;;;21.43;76.64;101053.88;20908655;28;20048;-70
2023/06/19 20:05:20;;;;;;;3.95;3.38;;;;;;;21.41;77.37;101064.00;20907743;28;20033;-70
2023/06/19 20:15:22;;;;;;;5.00;3.65;;;;;;;21.40;77.91;101083.97;20930567;28;20451;-70
2023/06/19 20:25:23;;;;;;;3.45;3.10;;;;;;;21.39;77.66;101095.81;20912326;28;20440;-70
2023/06/19 20:35:25;;;;;;;4.30;3.20;;;;;;;21.36;77.68;101096.94;20934770;28;20128;-70
2023/06/19 20:45:27;;;;;;;4.78;3.70;;;;;;;21.35;77.35;101094.41;20989286;28;20098;-70
2023/06/19 20:55:28;;;;;;;3.88;3.47;;;;;;;21.32;77.50;101098.28;20921344;28;20048;-70
2023/06/19 21:05:30;;;;;;;4.13;3.47;;;;;;;21.29;77.35;101094.03;20940603;28;20037;-70
2023/06/19 21:15:32;;;;;;;3.83;3.35;;;;;;;21.27;77.06;101093.34;20987879;28;20080;-70
2023/06/19 21:25:33;;;;;;;4.10;3.40;;;;;;;21.27;76.92;101093.34;20976083;28;20128;-70
2023/06/19 21:35:35;;;;;;;4.43;3.65;;;;;;;21.24;76.75;101112.59;20960596;28;20488;-70
2023/06/19 21:45:37;;;;;;;4.13;3.63;;;;;;;21.21;76.29;101104.78;20980072;28;20056;-70
2023/06/19 21:55:38;;;;;;;4.18;3.60;;;;;;;21.12;76.24;101094.84;20970332;28;20098;-70
2023/06/19 22:05:40;;;;;;;4.40;3.65;;;;;;;21.15;76.34;101099.97;20972668;28;20041;-70
2023/06/19 22:15:42;;;;;;;4.85;3.97;;;;;;;21.12;76.31;101093.00;20974589;28;20036;-70
2023/06/19 22:25:44;;;;;;;5.78;4.10;;;;;;;21.09;76.17;101089.75;20965242;28;20060;-70
2023/06/19 22:35:46;;;;;;;4.88;4.30;;;;;;;21.07;76.12;101092.63;20961603;28;20615;-70
2023/06/19 22:45:48;;;;;;;4.30;3.90;;;;;;;21.04;75.98;101092.94;21060675;28;20055;-70
2023/06/19 22:55:50;;;;;;;4.30;3.90;;;;;;;20.97;75.93;101080.97;21053426;28;20048;-70
2023/06/19 23:05:53;;;;;;;4.78;3.88;;;;;;;21.01;76.09;101094.06;21053019;28;20052;-70
2023/06/19 23:15:54;;;;;;;5.28;3.97;;;;;;;20.98;76.08;101083.56;21070764;28;20143;-70
2023/06/19 23:25:56;;;;;;;4.85;3.75;;;;;;;20.95;76.23;101067.63;21069374;28;20048;-69
2023/06/19 23:35:58;;;;;;;5.60;4.18;;;;;;;20.97;76.31;101072.88;21056003;28;20135;-69
2023/06/19 23:46:00;;;;;;;5.18;4.28;;;;;;;20.94;76.39;101076.75;21050713;28;20080;-70
2023/06/19 23:56:02;;;;;;;5.50;4.30;;;;;;;20.94;76.38;101059.63;21049237;28;20056;-70
